Time;durP1;ratioP1;P1;durP2;ratioP2;P2;SDS_P1;SDS_P2;PMS_P1;PMS_P2;Temp;Humidity;BMP_temperature;BMP_pressure;BME280_temperature;BME280_humidity;BME280_pressure;Samples;Min_cycle;Max_cycle;Signal;HPM_P1;HPM_P2
2022/07/02 00:00:57;;;;;;;8.45;5.70;;;;;;;22.17;65.44;99358.22;4982717;28;20025;-93
2022/07/02 00:03:24;;;;;;;9.30;6.10;;;;;;;22.16;65.46;99358.56;5015280;28;20407;-94
2022/07/02 00:05:56;;;;;;;11.55;6.47;;;;;;;22.21;65.42;99374.81;4982852;28;20030;-94
2022/07/02 00:08:22;;;;;;;8.40;6.65;;;;;;;22.12;65.41;99366.72;4985267;28;20049;-93
2022/07/02 00:10:48;;;;;;;8.20;6.07;;;;;;;21.95;65.87;99354.03;5015798;28;20030;-93
2022/07/02 00:13:13;;;;;;;7.60;5.78;;;;;;;21.88;66.18;99362.06;4982442;28;20557;-94
2022/07/02 00:15:40;;;;;;;9.60;6.00;;;;;;;21.91;66.26;99372.31;4998749;28;20026;-93
2022/07/02 00:18:05;;;;;;;8.45;6.00;;;;;;;21.73;66.63;99344.38;5014424;28;20042;-94
2022/07/02 00:20:31;;;;;;;8.13;5.90;;;;;;;21.74;66.56;99350.66;4982344;28;20507;-93
2022/07/02 00:22:57;;;;;;;13.48;6.50;;;;;;;21.78;66.65;99370.75;4982532;28;20085;-92
2022/07/02 00:25:23;;;;;;;8.05;5.95;;;;;;;21.97;65.94;99375.63;4982337;28;20068;-94
2022/07/02 00:27:49;;;;;;;9.35;6.35;;;;;;;21.95;65.73;99362.25;5014717;28;20041;-94
2022/07/02 00:30:15;;;;;;;8.13;6.57;;;;;;;21.94;65.75;99362.63;5014718;28;20056;-93
2022/07/02 00:32:41;;;;;;;7.03;5.72;;;;;;;21.82;66.93;99355.22;4982238;28;20026;-94
2022/07/02 00:35:10;;;;;;;10.82;6.03;;;;;;;21.80;66.59;99350.06;4982857;28;20471;-96
2022/07/02 00:37:40;;;;;;;8.75;6.60;;;;;;;21.76;66.78;99348.34;4998603;28;20030;-94
2022/07/02 00:40:08;;;;;;;9.88;7.00;;;;;;;21.76;66.84;99351.88;4998023;28;20061;-95
2022/07/02 00:42:38;;;;;;;8.07;6.90;;;;;;;21.62;67.33;99353.38;4998896;28;20028;-95
2022/07/02 00:45:04;;;;;;;12.02;6.70;;;;;;;21.53;67.41;99343.34;4982063;28;20117;-95
2022/07/02 00:47:30;;;;;;;11.43;6.93;;;;;;;21.66;67.39;99357.84;4981556;28;20042;-94
2022/07/02 00:49:56;;;;;;;11.60;6.90;;;;;;;21.52;67.10;99339.00;4981579;28;20500;-95
2022/07/02 00:52:21;;;;;;;11.82;6.90;;;;;;;21.52;67.28;99344.50;4981906;28;20025;-94
2022/07/02 00:54:47;;;;;;;8.80;7.22;;;;;;;21.70;66.64;99349.72;4981081;28;20026;-96
2022/07/02 00:57:13;;;;;;;10.20;7.50;;;;;;;21.79;65.94;99350.44;4981916;28;20036;-94
2022/07/02 00:59:38;;;;;;;10.02;8.00;;;;;;;21.86;66.12;99358.06;4998074;28;20057;-94
2022/07/02 01:02:07;;;;;;;9.95;7.93;;;;;;;21.89;65.14;99355.41;4981529;28;20060;-92
2022/07/02 01:04:33;;;;;;;11.18;7.32;;;;;;;22.04;64.49;99362.16;4997630;28;20053;-94
2022/07/02 01:07:09;;;;;;;9.68;6.38;;;;;;;22.13;64.30;99379.25;4981706;28;20037;-95
2022/07/02 01:12:26;;;;;;;6.85;6.15;;;;;;;22.04;65.01;99384.09;5014737;28;20071;-95
2022/07/02 01:14:54;;;;;;;10.05;6.32;;;;;;;22.07;64.45;99377.13;4997472;28;20038;-94
2022/07/02 01:17:20;;;;;;;7.63;5.95;;;;;;;22.08;64.16;99368.53;4981622;28;20515;-95
2022/07/02 01:19:46;;;;;;;6.28;5.65;;;;;;;22.10;64.03;99368.19;4982055;28;20033;-95
2022/07/02 01:22:12;;;;;;;9.38;6.35;;;;;;;21.99;64.13;99354.16;4998065;28;20026;-94
2022/07/02 01:24:38;;;;;;;8.68;6.03;;;;;;;21.77;64.79;99352.72;4997689;28;20408;-95
2022/07/02 01:27:04;;;;;;;9.40;5.93;;;;;;;21.77;64.63;99350.75;4982166;28;20034;-94
2022/07/02 01:29:31;;;;;;;12.00;5.97;;;;;;;21.68;64.97;99352.03;4998321;28;20480;-92
2022/07/02 01:31:57;;;;;;;7.00;6.18;;;;;;;21.62;65.44;99365.13;5014790;28;20017;-93
2022/07/02 01:34:23;;;;;;;12.25;6.63;;;;;;;21.52;65.94;99344.50;4998473;28;20025;-95
2022/07/02 01:36:49;;;;;;;8.30;6.50;;;;;;;21.52;65.64;99347.25;4998104;28;20030;-95
2022/07/02 01:39:15;;;;;;;7.18;6.00;;;;;;;21.42;66.31;99347.69;5014125;28;20030;-95
2022/07/02 01:41:41;;;;;;;12.27;6.20;;;;;;;21.38;66.51;99353.00;5013318;28;20038;-95
2022/07/02 01:44:12;;;;;;;10.95;6.40;;;;;;;21.27;66.66;99348.31;4981033;28;20033;-96
2022/07/02 01:46:37;;;;;;;9.68;6.18;;;;;;;21.23;66.85;99355.59;4998219;28;20377;-96
2022/07/02 01:49:03;;;;;;;11.10;6.40;;;;;;;21.22;67.28;99348.53;4981405;28;20064;-95
2022/07/02 01:51:28;;;;;;;16.85;6.82;;;;;;;21.16;67.56;99354.22;4981515;28;20074;-94
2022/07/02 01:53:55;;;;;;;13.35;6.45;;;;;;;21.11;67.28;99353.66;4981336;28;20044;-94
2022/07/02 01:56:21;;;;;;;7.55;6.18;;;;;;;21.14;67.99;99369.41;4997860;28;20536;-95
2022/07/02 01:58:47;;;;;;;7.10;6.40;;;;;;;21.18;66.86;99367.59;4996821;28;20045;-95
2022/07/02 02:01:14;;;;;;;8.73;6.35;;;;;;;21.19;66.88;99356.31;5013998;28;20033;-94
2022/07/02 02:03:39;;;;;;;7.13;6.22;;;;;;;21.23;66.20;99353.69;5013399;28;20025;-95
2022/07/02 02:06:06;;;;;;;7.28;6.18;;;;;;;21.42;65.74;99369.59;4980442;28;20033;-95
2022/07/02 02:08:32;;;;;;;10.57;5.82;;;;;;;21.41;65.53;99359.75;5013076;28;20038;-95
2022/07/02 02:10:59;;;;;;;8.23;6.10;;;;;;;21.17;66.29;99355.06;5013865;28;20080;-95
2022/07/02 02:13:25;;;;;;;10.13;6.07;;;;;;;21.17;66.26;99358.56;5029769;28;20424;-95
2022/07/02 02:15:51;;;;;;;10.98;6.32;;;;;;;21.27;66.49;99367.47;4996634;28;20026;-95
2022/07/02 02:18:16;;;;;;;9.68;6.70;;;;;;;21.28;66.28;99364.41;4980223;28;20029;-95
2022/07/02 02:20:43;;;;;;;14.85;6.93;;;;;;;21.17;66.81;99357.78;4997205;28;20464;-95
2022/07/02 02:23:09;;;;;;;15.95;6.50;;;;;;;21.03;67.48;99362.78;4996627;28;20018;-94
2022/07/02 02:25:34;;;;;;;8.02;6.03;;;;;;;21.05;67.17;99369.50;4980578;28;20022;-95
2022/07/02 02:28:00;;;;;;;14.43;6.25;;;;;;;20.95;67.36;99375.41;4964553;28;20041;-94
2022/07/02 02:30:26;;;;;;;13.52;6.88;;;;;;;20.85;67.48;99371.16;5012733;28;20032;-94
2022/07/02 02:32:51;;;;;;;12.13;5.82;;;;;;;20.85;67.05;99353.94;4979923;28;20026;-95
2022/07/02 02:35:18;;;;;;;10.73;6.60;;;;;;;20.82;67.83;99376.53;4980369;28;20034;-95
2022/07/02 02:37:44;;;;;;;9.30;6.53;;;;;;;20.78;67.97;99388.13;4980560;28;20029;-94
2022/07/02 02:40:10;;;;;;;9.88;6.35;;;;;;;20.74;68.23;99387.19;5012867;28;20493;-95
2022/07/02 02:42:36;;;;;;;10.52;6.18;;;;;;;20.71;68.70;99385.13;4980286;28;20037;-95
2022/07/02 02:45:05;;;;;;;9.57;6.28;;;;;;;20.85;68.07;99403.19;4996639;28;20042;-96
2022/07/02 02:47:31;;;;;;;7.70;6.25;;;;;;;20.84;68.12;99407.09;4996794;28;20514;-93
2022/07/02 02:49:57;;;;;;;8.43;6.57;;;;;;;20.79;68.27;99389.75;4996618;28;20042;-93
2022/07/02 02:52:23;;;;;;;15.45;6.50;;;;;;;20.81;67.86;99386.63;5012974;28;20056;-93
2022/07/02 02:54:49;;;;;;;9.25;6.10;;;;;;;20.84;68.68;99407.88;5012149;28;20030;-93
2022/07/02 02:57:15;;;;;;;9.13;6.35;;;;;;;20.77;68.53;99396.66;4996510;28;20040;-94
2022/07/02 02:59:40;;;;;;;10.43;6.00;;;;;;;20.75;68.26;99402.50;4996152;28;20040;-96
2022/07/02 03:02:07;;;;;;;10.93;6.15;;;;;;;20.75;68.11;99401.66;4980162;28;20022;-94
2022/07/02 03:04:33;;;;;;;6.85;5.97;;;;;;;20.78;68.27;99399.06;4996681;28;20029;-94
2022/07/02 03:06:59;;;;;;;8.68;6.57;;;;;;;20.70;68.36;99408.16;4980078;28;20033;-93
2022/07/02 03:09:26;;;;;;;6.53;5.93;;;;;;;20.75;67.81;99402.50;4979551;28;20496;-95
2022/07/02 03:11:51;;;;;;;12.38;6.22;;;;;;;20.92;66.21;99404.25;4996076;28;20088;-94
2022/07/02 03:14:19;;;;;;;8.68;5.70;;;;;;;21.13;65.23;99417.91;4979990;28;20480;-94
2022/07/02 03:16:47;;;;;;;12.75;6.05;;;;;;;21.14;65.30;99418.69;4980506;28;20029;-95
2022/07/02 03:19:12;;;;;;;9.48;5.93;;;;;;;21.10;64.90;99399.38;5016754;28;20029;-94
2022/07/02 03:21:38;;;;;;;7.38;5.65;;;;;;;21.22;65.22;99409.59;4999722;28;20034;-94
2022/07/02 03:24:04;;;;;;;12.32;5.93;;;;;;;21.19;65.88;99429.44;5016163;28;20461;-94
2022/07/02 03:26:30;;;;;;;8.25;6.13;;;;;;;21.04;66.53;99413.63;4999857;28;20054;-94
2022/07/02 03:28:56;;;;;;;6.53;5.63;;;;;;;20.96;66.73;99416.13;4999396;28;20044;-95
2022/07/02 03:31:22;;;;;;;8.70;6.25;;;;;;;20.95;66.48;99414.53;4999758;28;20029;-95
2022/07/02 03:33:48;;;;;;;7.13;5.70;;;;;;;20.99;66.42;99423.66;5015822;28;20033;-93
2022/07/02 03:36:16;;;;;;;9.65;6.38;;;;;;;20.95;66.59;99430.94;5000408;28;20021;-94
2022/07/02 03:38:43;;;;;;;7.72;5.68;;;;;;;20.91;66.65;99430.00;5015805;28;20021;-94
2022/07/02 03:41:09;;;;;;;7.78;6.13;;;;;;;20.79;66.68;99408.88;5015939;28;20030;-95
2022/07/02 03:43:35;;;;;;;8.75;6.70;;;;;;;20.86;66.89;99424.75;4999701;28;20021;-94
2022/07/02 03:46:01;;;;;;;9.27;6.72;;;;;;;20.86;67.07;99432.97;4983958;28;20025;-94
2022/07/02 03:48:27;;;;;;;10.90;6.43;;;;;;;20.87;66.97;99433.75;4983326;28;20060;-94
2022/07/02 03:50:54;;;;;;;8.68;6.50;;;;;;;20.82;66.68;99423.03;4999634;28;20034;-94
2022/07/02 03:53:19;;;;;;;8.43;6.75;;;;;;;20.92;66.57;99437.09;5000156;28;20084;-95
2022/07/02 03:55:46;;;;;;;13.43;7.60;;;;;;;20.83;67.11;99427.38;4984059;28;20030;-94
2022/07/02 03:58:12;;;;;;;10.95;7.20;;;;;;;20.91;67.15;99445.66;5014522;28;20049;-95
2022/07/02 04:00:38;;;;;;;9.68;7.30;;;;;;;20.90;67.35;99433.91;4983074;28;20464;-94
2022/07/02 04:03:04;;;;;;;9.00;6.72;;;;;;;20.95;66.90;99443.84;4982996;28;20026;-94
2022/07/02 04:05:30;;;;;;;8.25;6.28;;;;;;;21.18;66.24;99449.72;4999339;28;20424;-93
2022/07/02 04:07:56;;;;;;;14.38;7.40;;;;;;;21.09;66.42;99433.41;4999075;28;20026;-95
2022/07/02 04:10:24;;;;;;;10.68;6.35;;;;;;;21.23;66.08;99454.19;4998789;28;20030;-94
2022/07/02 04:12:50;;;;;;;7.65;6.45;;;;;;;21.32;66.17;99452.97;4983340;28;20037;-94
2022/07/02 04:15:15;;;;;;;11.25;6.50;;;;;;;21.41;65.57;99450.13;4982551;28;20026;-94
2022/07/02 04:17:41;;;;;;;13.55;6.40;;;;;;;21.41;65.36;99447.41;4982678;28;20022;-95
2022/07/02 04:20:07;;;;;;;7.72;6.18;;;;;;;21.51;65.29;99465.38;4982182;28;20030;-95
2022/07/02 04:22:32;;;;;;;11.13;5.80;;;;;;;21.57;64.49;99458.53;4982627;28;20092;-94
2022/07/02 04:24:58;;;;;;;14.57;5.47;;;;;;;21.47;64.92;99442.53;4982944;28;20037;-94
2022/07/02 04:27:23;;;;;;;15.00;6.43;;;;;;;21.65;63.93;99457.66;4982488;28;20021;-95
2022/07/02 04:29:49;;;;;;;20.88;5.93;;;;;;;21.84;63.00;99470.00;4982204;28;20095;-94
2022/07/02 04:32:14;;;;;;;14.23;5.80;;;;;;;21.69;63.61;99458.56;4982893;28;20022;-94
2022/07/02 04:34:40;;;;;;;8.48;5.68;;;;;;;21.78;63.47;99463.94;4983655;28;20036;-94
2022/07/02 04:37:05;;;;;;;10.18;5.53;;;;;;;21.73;63.09;99445.78;4983489;28;20033;-95
2022/07/02 04:39:31;;;;;;;11.30;5.82;;;;;;;21.76;63.97;99445.06;4982840;28;20381;-93
2022/07/02 04:41:57;;;;;;;13.50;6.00;;;;;;;21.88;64.02;99462.69;4982575;28;20014;-95
2022/07/02 04:44:24;;;;;;;14.20;5.70;;;;;;;21.97;62.01;99453.19;4983728;28;20146;-94
2022/07/02 04:46:49;;;;;;;10.70;5.75;;;;;;;22.09;61.79;99457.88;4982477;28;20064;-94
2022/07/02 04:49:15;;;;;;;9.48;5.55;;;;;;;22.20;61.29;99463.69;4981747;28;20050;-94
2022/07/02 04:51:40;;;;;;;10.43;6.00;;;;;;;22.27;61.44;99469.47;4982924;28;20468;-95
2022/07/02 04:54:06;;;;;;;8.13;5.40;;;;;;;22.17;61.66;99448.75;4982259;28;20022;-95
2022/07/02 04:56:31;;;;;;;11.75;6.00;;;;;;;22.40;61.38;99475.72;4981870;28;20048;-95
2022/07/02 04:58:57;;;;;;;9.63;5.95;;;;;;;22.41;61.12;99460.84;4982566;28;20551;-93
2022/07/02 05:01:25;;;;;;;12.68;6.03;;;;;;;22.57;61.54;99480.16;4983306;28;20022;-94
2022/07/02 05:03:51;;;;;;;13.55;6.10;;;;;;;22.55;60.13;99472.25;4983855;28;20052;-95
2022/07/02 05:06:23;;;;;;;10.20;5.88;;;;;;;22.77;60.08;99487.41;4983807;28;20093;-95
2022/07/02 05:08:49;;;;;;;10.95;5.93;;;;;;;22.77;60.04;99472.91;4983288;28;20034;-94
2022/07/02 05:11:19;;;;;;;9.65;5.75;;;;;;;22.90;58.91;99476.41;4982367;28;20463;-95
2022/07/02 05:13:45;;;;;;;14.68;5.45;;;;;;;22.91;59.95;99458.75;4984433;28;20089;-94
2022/07/02 05:16:11;;;;;;;10.48;5.40;;;;;;;23.17;59.08;99485.81;4983681;28;20029;-94
2022/07/02 05:18:36;;;;;;;9.65;5.43;;;;;;;23.22;58.27;99476.53;4983970;28;20476;-94
2022/07/02 05:21:25;;;;;;;12.63;5.70;;;;;;;23.33;58.11;99494.13;4969685;28;20030;-96
2022/07/02 05:23:50;;;;;;;8.32;5.43;;;;;;;23.31;57.80;99471.69;5017543;28;20026;-94
2022/07/02 05:26:16;;;;;;;11.52;6.28;;;;;;;23.47;57.90;99479.94;4985630;28;20029;-94
2022/07/02 05:28:41;;;;;;;9.07;6.00;;;;;;;23.57;56.98;99487.66;4985203;28;20550;-93
2022/07/02 05:31:07;;;;;;;12.45;5.60;;;;;;;23.62;57.60;99481.91;4984728;28;20511;-94
2022/07/02 05:33:33;;;;;;;10.65;5.53;;;;;;;23.64;57.26;99485.13;4984723;28;20026;-94
2022/07/02 05:35:58;;;;;;;10.40;5.15;;;;;;;23.78;57.11;99485.50;4984684;28;20026;-95
2022/07/02 05:38:23;;;;;;;10.70;5.50;;;;;;;23.97;56.16;99495.00;4985150;28;20025;-95
2022/07/02 05:40:49;;;;;;;7.15;4.78;;;;;;;24.08;54.80;99500.75;4983668;28;20484;-93
2022/07/02 05:43:15;;;;;;;7.70;5.20;;;;;;;24.13;56.02;99493.03;4984810;28;20029;-95
2022/07/02 05:45:40;;;;;;;11.70;5.20;;;;;;;24.08;55.65;99484.25;4983918;28;20040;-94
2022/07/02 05:48:06;;;;;;;9.38;4.93;;;;;;;24.19;54.35;99482.53;4989346;28;20132;-94
2022/07/02 05:50:31;;;;;;;8.05;5.35;;;;;;;24.23;55.00;99482.63;5005198;28;20024;-94
2022/07/02 05:52:57;;;;;;;10.38;5.70;;;;;;;24.30;54.90;99482.78;5023167;28;20024;-93
2022/07/02 05:55:23;;;;;;;8.60;5.78;;;;;;;24.42;55.57;99499.19;5022987;28;20481;-94
2022/07/02 05:57:48;;;;;;;7.70;5.80;;;;;;;24.61;54.69;99512.22;5023626;28;20025;-95
2022/07/02 06:00:14;;;;;;;18.67;7.15;;;;;;;24.54;55.21;99492.81;5023524;28;20025;-95
2022/07/02 06:02:40;;;;;;;14.32;7.07;;;;;;;24.65;53.81;99515.84;5005378;28;20100;-94
2022/07/02 06:07:50;;;;;;;9.63;7.40;;;;;;;24.74;54.07;99513.72;5028899;28;20040;-96
2022/07/02 06:10:18;;;;;;;15.48;8.30;;;;;;;24.77;53.98;99501.97;5024905;28;20032;-96
2022/07/02 06:12:49;;;;;;;9.18;7.63;;;;;;;24.90;54.61;99512.84;5010393;28;20041;-96
2022/07/02 06:15:15;;;;;;;13.10;8.13;;;;;;;24.91;53.80;99506.97;5006689;28;20021;-94
2022/07/02 06:17:41;;;;;;;13.93;7.93;;;;;;;25.11;53.30;99496.78;5004040;28;20025;-91
2022/07/02 06:20:08;;;;;;;12.32;8.30;;;;;;;25.26;52.23;99510.88;5019976;28;20048;-93
2022/07/02 06:22:34;;;;;;;16.73;8.90;;;;;;;25.46;52.04;99515.16;5005288;28;20033;-93
2022/07/02 06:24:59;;;;;;;16.73;9.63;;;;;;;25.53;52.36;99514.53;5041581;28;20105;-94
2022/07/02 06:27:25;;;;;;;12.10;8.45;;;;;;;25.59;52.62;99522.13;5006987;28;20037;-95
2022/07/02 06:29:50;;;;;;;14.40;8.27;;;;;;;25.67;51.96;99502.94;5022180;28;20116;-96
2022/07/02 06:32:16;;;;;;;124.55;16.00;;;;;;;25.83;51.97;99500.84;5021357;28;20021;-95
2022/07/02 06:34:43;;;;;;;19.52;7.78;;;;;;;25.67;50.80;99506.50;5004689;28;20055;-93
2022/07/02 06:37:08;;;;;;;19.52;6.93;;;;;;;25.89;50.61;99510.44;5020574;28;20074;-95
2022/07/02 06:39:34;;;;;;;14.68;6.25;;;;;;;26.05;50.78;99509.53;5020891;28;20021;-94
2022/07/02 06:44:47;;;;;;;7.22;5.65;;;;;;;26.20;49.62;99508.59;5039105;28;20071;-94
2022/07/02 06:47:13;;;;;;;13.73;5.90;;;;;;;26.24;49.36;99501.16;5004450;28;20025;-92
2022/07/02 06:49:39;;;;;;;8.18;5.07;;;;;;;26.45;49.08;99511.72;5005651;28;20048;-93
2022/07/02 06:52:05;;;;;;;10.25;6.38;;;;;;;26.49;48.36;99496.00;5024540;28;20032;-91
2022/07/02 06:54:31;;;;;;;16.73;6.00;;;;;;;26.66;48.18;99500.22;5009458;28;20063;-92
2022/07/02 06:56:57;;;;;;;10.25;5.60;;;;;;;26.82;47.63;99513.84;5010283;28;20112;-94
2022/07/02 06:59:22;;;;;;;16.70;4.82;;;;;;;26.87;46.53;99499.69;5007754;28;20052;-93
2022/07/02 07:01:48;;;;;;;8.73;4.68;;;;;;;27.03;46.26;99507.78;5045455;28;20028;-95
2022/07/02 07:04:14;;;;;;;7.03;5.20;;;;;;;27.21;47.24;99522.63;5012020;28;20036;-92
2022/07/02 07:06:43;;;;;;;7.43;4.75;;;;;;;27.17;47.16;99498.88;5024124;28;20025;-94
2022/07/02 07:09:09;;;;;;;7.78;4.50;;;;;;;27.29;47.63;99515.25;5024025;28;20483;-92
2022/07/02 07:11:35;;;;;;;9.25;4.90;;;;;;;27.49;48.01;99521.38;5023626;28;20028;-93
2022/07/02 07:14:00;;;;;;;8.05;4.65;;;;;;;27.47;48.05;99515.41;5006546;28;20024;-93
2022/07/02 07:16:26;;;;;;;8.07;4.88;;;;;;;27.55;47.52;99524.59;5023536;28;20024;-93
2022/07/02 07:21:20;;;;;;;7.60;5.00;;;;;;;27.79;48.54;99537.09;5024353;28;20040;-92
2022/07/02 07:23:45;;;;;;;5.60;4.45;;;;;;;27.92;47.53;99532.88;5022372;28;20025;-93
2022/07/02 07:26:11;;;;;;;8.27;4.57;;;;;;;28.13;47.28;99546.09;5022711;28;20071;-93
2022/07/02 07:28:38;;;;;;;7.88;4.63;;;;;;;28.27;47.73;99553.75;5007644;28;20017;-92
2022/07/02 07:31:03;;;;;;;8.27;4.30;;;;;;;28.29;47.09;99534.78;5005250;28;20036;-93
2022/07/02 07:33:29;;;;;;;6.25;4.38;;;;;;;28.21;46.06;99510.97;5022356;28;20025;-92
2022/07/02 07:35:54;;;;;;;7.70;4.50;;;;;;;28.53;46.49;99543.66;5005761;28;20017;-94
2022/07/02 07:38:20;;;;;;;11.40;4.13;;;;;;;28.57;43.21;99534.19;5024101;28;20032;-96
2022/07/02 07:40:45;;;;;;;7.50;4.03;;;;;;;28.71;43.40;99544.56;5024897;28;20372;-93
2022/07/02 07:43:11;;;;;;;8.65;4.13;;;;;;;28.83;43.03;99543.44;5007612;28;20112;-94
2022/07/02 07:45:37;;;;;;;8.48;4.95;;;;;;;28.89;43.05;99538.31;5024098;28;20471;-93
2022/07/02 07:48:03;;;;;;;12.18;4.72;;;;;;;29.06;42.33;99537.63;5022940;28;20406;-94
2022/07/02 07:50:28;;;;;;;7.38;4.30;;;;;;;29.12;41.69;99527.78;5005910;28;20017;-94
2022/07/02 07:52:54;;;;;;;8.07;4.93;;;;;;;29.25;40.83;99527.41;5005624;28;20017;-95
2022/07/02 07:55:20;;;;;;;8.38;3.65;;;;;;;29.39;38.83;99546.88;5005569;28;20033;-93
2022/07/02 07:57:45;;;;;;;10.27;4.78;;;;;;;29.45;40.36;99542.53;5022223;28;20025;-94
2022/07/02 08:00:11;;;;;;;8.60;4.15;;;;;;;29.60;39.78;99549.69;5037931;28;20020;-95
2022/07/02 08:02:37;;;;;;;7.75;4.00;;;;;;;29.61;38.83;99534.66;5005645;28;20060;-93
2022/07/02 08:05:02;;;;;;;4.85;3.30;;;;;;;29.76;36.48;99546.59;5005414;28;20083;-94
2022/07/02 08:07:28;;;;;;;7.82;3.15;;;;;;;29.85;36.01;99546.22;5005203;28;20502;-93
2022/07/02 08:09:54;;;;;;;4.15;3.40;;;;;;;29.92;35.32;99550.97;5021928;28;20032;-93
2022/07/02 08:12:22;;;;;;;8.77;3.17;;;;;;;29.94;34.15;99543.81;5005459;28;20414;-92
2022/07/02 08:14:48;;;;;;;4.63;3.20;;;;;;;30.06;34.21;99553.75;5005464;28;20033;-92
2022/07/02 08:17:14;;;;;;;6.18;3.60;;;;;;;30.08;31.49;99537.50;5022372;28;20032;-92
2022/07/02 08:19:39;;;;;;;4.75;2.88;;;;;;;30.19;32.00;99543.81;5005066;28;20025;-94
2022/07/02 08:22:05;;;;;;;6.07;2.88;;;;;;;30.21;31.10;99548.97;5005225;28;20032;-92
2022/07/02 08:24:30;;;;;;;11.30;3.30;;;;;;;30.36;30.80;99550.59;5022362;28;20466;-93
2022/07/02 08:26:56;;;;;;;5.00;2.90;;;;;;;30.47;31.49;99553.38;5021393;28;20027;-92
2022/07/02 08:29:21;;;;;;;9.57;3.38;;;;;;;30.59;32.22;99558.50;5038375;28;20025;-92
2022/07/02 08:31:47;;;;;;;4.05;3.25;;;;;;;30.56;32.50;99539.84;5021620;28;20020;-94
2022/07/02 08:34:12;;;;;;;6.72;2.88;;;;;;;30.66;32.58;99559.69;5021070;28;20024;-93
2022/07/02 08:36:38;;;;;;;5.85;3.08;;;;;;;30.66;32.71;99543.00;5021959;28;20027;-93
2022/07/02 08:39:03;;;;;;;9.30;3.42;;;;;;;30.82;32.14;99558.06;5022246;28;20423;-92
2022/07/02 08:41:29;;;;;;;4.93;3.45;;;;;;;30.93;32.82;99563.63;5005033;28;20032;-91
2022/07/02 08:43:55;;;;;;;5.47;3.25;;;;;;;30.83;33.50;99553.28;5054296;28;20021;-93
2022/07/02 08:46:20;;;;;;;6.80;3.28;;;;;;;30.93;32.43;99558.06;5022459;28;20035;-94
2022/07/02 08:48:46;;;;;;;8.57;3.72;;;;;;;30.97;33.36;99549.69;5005772;28;20099;-94
2022/07/02 08:51:13;;;;;;;6.40;4.05;;;;;;;31.12;32.52;99561.56;5289486;23;20057;-91
2022/07/02 08:53:40;;;;;;;5.53;3.13;;;;;;;31.13;32.31;99557.56;5004693;28;20056;-92
2022/07/02 08:56:07;;;;;;;7.43;3.60;;;;;;;31.12;32.87;99559.56;5021624;28;20514;-95
2022/07/02 08:58:33;;;;;;;9.38;3.78;;;;;;;31.17;32.25;99561.94;5006023;28;20092;-93
2022/07/02 09:00:59;;;;;;;6.07;3.38;;;;;;;31.29;31.52;99560.69;5021363;28;20037;-92
2022/07/02 09:03:25;;;;;;;6.50;3.90;;;;;;;31.25;32.11;99548.00;5003757;28;20079;-91
2022/07/02 09:05:54;;;;;;;8.98;3.85;;;;;;;31.17;31.76;99550.81;5004327;28;20021;-94
2022/07/02 09:08:22;;;;;;;7.53;3.80;;;;;;;31.26;32.45;99553.16;5007895;28;20040;-92
2022/07/02 09:10:48;;;;;;;7.40;3.63;;;;;;;31.31;32.32;99544.38;5006025;28;20025;-91
2022/07/02 09:13:14;;;;;;;6.15;3.53;;;;;;;31.40;32.75;99541.97;5004335;28;20059;-91
2022/07/02 09:15:39;;;;;;;5.38;3.63;;;;;;;31.53;32.97;99552.66;5004103;28;20018;-92
2022/07/02 09:18:05;;;;;;;8.18;3.28;;;;;;;31.54;32.90;99563.38;5004216;28;20017;-91
2022/07/02 09:20:32;;;;;;;5.38;3.75;;;;;;;31.48;32.89;99542.75;5003971;28;20167;-92
2022/07/02 09:22:58;;;;;;;6.95;3.35;;;;;;;31.64;33.59;99556.16;5004902;28;20455;-91
2022/07/02 09:25:27;;;;;;;7.90;4.32;;;;;;;31.65;33.21;99557.75;5004145;28;20025;-92
2022/07/02 09:28:03;;;;;;;11.77;3.60;;;;;;;31.58;33.25;99541.88;5005172;28;20036;-91
2022/07/02 09:30:30;;;;;;;4.07;3.30;;;;;;;31.64;33.78;99533.09;5005650;28;20535;-92
2022/07/02 09:35:39;;;;;;;7.45;3.40;;;;;;;31.92;33.49;99549.59;5026932;28;20569;-92
2022/07/02 09:38:11;;;;;;;5.75;3.40;;;;;;;32.00;34.33;99548.38;5004418;28;20056;-92
2022/07/02 09:40:37;;;;;;;6.45;3.65;;;;;;;32.07;33.39;99560.66;5005425;28;20021;-93
2022/07/02 09:43:03;;;;;;;9.32;4.40;;;;;;;32.04;33.72;99545.53;5021290;28;20035;-91
2022/07/02 09:45:29;;;;;;;8.07;3.47;;;;;;;32.05;33.19;99547.16;5003378;28;20025;-91
2022/07/02 09:47:54;;;;;;;10.30;3.70;;;;;;;32.04;33.46;99533.63;5003504;28;20029;-91
2022/07/02 09:50:21;;;;;;;5.72;4.18;;;;;;;32.00;33.27;99550.34;5003499;28;20115;-93
2022/07/02 09:52:52;;;;;;;4.78;3.10;;;;;;;32.00;33.35;99548.38;5003440;28;20387;-90
2022/07/02 09:55:24;;;;;;;3.58;2.90;;;;;;;31.87;33.69;99540.88;5003046;28;20025;-90
2022/07/02 09:57:53;;;;;;;4.32;3.00;;;;;;;32.01;34.08;99541.59;5036239;28;20021;-91
2022/07/02 10:00:19;;;;;;;6.93;2.83;;;;;;;32.14;32.20;99541.88;5003428;28;20045;-91
2022/07/02 10:02:44;;;;;;;6.38;3.38;;;;;;;32.24;32.59;99539.44;5004335;28;20604;-91
2022/07/02 10:05:11;;;;;;;3.72;3.08;;;;;;;32.44;32.01;99546.00;5003287;28;20414;-92
2022/07/02 10:07:37;;;;;;;5.72;3.58;;;;;;;32.41;31.14;99552.41;5003237;28;20039;-91
2022/07/02 10:10:04;;;;;;;4.07;3.05;;;;;;;32.32;30.88;99555.66;5002940;28;20151;-90
2022/07/02 10:12:29;;;;;;;5.38;3.45;;;;;;;32.37;31.82;99551.63;5019463;28;20470;-91
2022/07/02 10:14:55;;;;;;;4.60;3.85;;;;;;;32.39;31.21;99555.59;5003024;28;20101;-91
2022/07/02 10:17:20;;;;;;;7.65;3.53;;;;;;;32.41;30.47;99547.59;5002635;28;20029;-91
2022/07/02 10:19:46;;;;;;;10.88;2.92;;;;;;;32.58;29.83;99557.03;5002223;28;20033;-91
2022/07/02 10:22:11;;;;;;;4.20;2.95;;;;;;;32.59;29.71;99555.03;5002088;28;20067;-93
2022/07/02 10:24:37;;;;;;;9.35;3.28;;;;;;;32.70;29.56;99568.88;5002548;28;20406;-91
2022/07/02 10:27:02;;;;;;;6.18;2.90;;;;;;;32.65;29.56;99553.38;5018818;28;20021;-91
2022/07/02 10:29:29;;;;;;;7.80;3.40;;;;;;;32.68;29.54;99544.19;5018919;28;20021;-92
2022/07/02 10:32:21;;;;;;;5.47;2.92;;;;;;;32.72;29.19;99536.56;5002169;28;20104;-93
2022/07/02 10:35:11;;;;;;;5.45;2.83;;;;;;;32.76;28.59;99558.84;5044800;28;20045;-92
2022/07/02 10:37:40;;;;;;;8.00;2.75;;;;;;;32.69;27.73;99545.78;5018462;28;20033;-93
2022/07/02 10:40:09;;;;;;;4.07;3.00;;;;;;;32.64;28.31;99532.28;5002344;28;20039;-92
2022/07/02 10:42:42;;;;;;;19.58;3.75;;;;;;;32.65;28.46;99533.09;5003369;28;20025;-94
2022/07/02 10:45:10;;;;;;;10.93;3.05;;;;;;;32.74;28.21;99533.38;5002620;28;20147;-96
2022/07/02 10:47:35;;;;;;;5.25;2.65;;;;;;;32.80;27.79;99529.69;5002141;28;20384;-92
2022/07/02 10:50:02;;;;;;;3.38;2.70;;;;;;;32.81;28.00;99524.94;5002127;28;20041;-93
2022/07/02 10:52:47;;;;;;;5.43;2.70;;;;;;;32.93;27.50;99543.09;5018249;28;20045;-94
2022/07/02 10:55:32;;;;;;;5.93;2.75;;;;;;;32.86;27.59;99526.47;5052459;28;20044;-93
2022/07/02 10:58:02;;;;;;;5.88;2.60;;;;;;;32.98;27.82;99531.50;5036221;28;20048;-92
2022/07/02 11:00:33;;;;;;;5.03;3.00;;;;;;;33.00;27.68;99524.28;5019182;28;20017;-92
2022/07/02 11:03:09;;;;;;;4.70;3.30;;;;;;;32.92;27.55;99519.22;5018966;28;20025;-94
2022/07/02 11:05:34;;;;;;;4.55;2.83;;;;;;;32.90;27.11;99528.00;5020566;28;20095;-95
2022/07/02 11:08:00;;;;;;;8.05;3.20;;;;;;;33.04;27.47;99527.06;5018576;28;20029;-94
2022/07/02 11:10:27;;;;;;;5.30;2.85;;;;;;;33.10;27.68;99527.38;5018266;28;20036;-94
2022/07/02 11:13:00;;;;;;;5.32;3.10;;;;;;;33.11;27.47;99515.81;5018807;28;20017;-94
2022/07/02 11:15:43;;;;;;;5.03;2.78;;;;;;;33.10;26.75;99505.06;5018939;28;20043;-94
2022/07/02 11:18:09;;;;;;;4.43;2.67;;;;;;;33.20;27.09;99510.53;5018320;28;20451;-93
2022/07/02 11:20:37;;;;;;;7.47;2.80;;;;;;;33.20;26.92;99506.91;5035197;28;20114;-94
2022/07/02 11:23:03;;;;;;;3.10;2.70;;;;;;;33.18;26.55;99526.91;5018841;28;20032;-93
2022/07/02 11:25:30;;;;;;;5.97;3.05;;;;;;;33.25;26.43;99516.84;5018200;28;20025;-93
2022/07/02 11:27:58;;;;;;;5.97;3.15;;;;;;;33.21;26.96;99512.09;5018476;28;20052;-94
2022/07/02 11:30:27;;;;;;;7.00;2.90;;;;;;;33.22;26.74;99519.28;5018745;28;20021;-96
2022/07/02 11:32:52;;;;;;;4.25;2.97;;;;;;;33.29;26.78;99503.59;5019415;28;20069;-91
2022/07/02 11:35:20;;;;;;;8.18;3.03;;;;;;;33.27;27.06;99508.81;5053870;28;20021;-96
2022/07/02 11:37:46;;;;;;;8.77;3.83;;;;;;;33.28;26.65;99504.84;5019475;28;20025;-93
2022/07/02 11:40:21;;;;;;;4.93;3.40;;;;;;;33.20;26.90;99516.09;5022812;28;20008;-92
2022/07/02 11:42:47;;;;;;;6.75;2.90;;;;;;;33.45;27.07;99523.31;5022760;28;20053;-93